Time;durP1;ratioP1;P1;durP2;ratioP2;P2;SDS_P1;SDS_P2;PMS_P1;PMS_P2;Temp;Humidity;BMP_temperature;BMP_pressure;BME280_temperature;BME280_humidity;BME280_pressure;Samples;Min_cycle;Max_cycle;Signal;HPM_P1;HPM_P2
2022/12/04 00:02:11;;;;;;;26.77;17.67;;;5.70;99.90;;;;;;4859090;29;20371;-66
2022/12/04 00:04:37;;;;;;;29.35;17.48;;;5.70;99.90;;;;;;4861601;29;20041;-68
2022/12/04 00:07:04;;;;;;;30.75;17.45;;;5.70;99.90;;;;;;4861603;29;20097;-67
2022/12/04 00:09:31;;;;;;;30.15;17.67;;;5.70;99.90;;;;;;4857931;29;20459;-67
2022/12/04 00:11:57;;;;;;;27.05;18.27;;;5.70;99.90;;;;;;4859188;29;20080;-66
2022/12/04 00:14:24;;;;;;;24.85;17.33;;;5.70;99.90;;;;;;4855306;29;20101;-67
2022/12/04 00:16:51;;;;;;;27.10;17.52;;;5.80;99.90;;;;;;4861892;29;20045;-68
2022/12/04 00:19:18;;;;;;;27.88;17.30;;;5.80;99.90;;;;;;4862057;29;20137;-68
2022/12/04 00:21:45;;;;;;;28.27;17.45;;;5.70;99.90;;;;;;4862058;29;20110;-69
2022/12/04 00:24:12;;;;;;;27.45;18.05;;;5.70;99.90;;;;;;4862231;29;20485;-68
2022/12/04 00:26:38;;;;;;;26.67;17.83;;;5.70;99.90;;;;;;4860598;29;20092;-69
2022/12/04 00:29:05;;;;;;;28.63;17.33;;;5.70;99.90;;;;;;4861979;29;20078;-67
2022/12/04 00:31:32;;;;;;;26.75;17.35;;;5.70;99.90;;;;;;4861727;29;20513;-67
2022/12/04 00:33:59;;;;;;;30.45;17.77;;;5.70;99.90;;;;;;4860676;29;20064;-66
2022/12/04 00:36:26;;;;;;;27.17;17.50;;;5.70;99.90;;;;;;4861942;29;20052;-66
2022/12/04 00:38:53;;;;;;;28.55;17.98;;;5.70;99.90;;;;;;4861524;29;20046;-68
2022/12/04 00:41:19;;;;;;;25.63;17.45;;;5.70;99.90;;;;;;4860704;29;20050;-67
2022/12/04 00:43:46;;;;;;;26.38;17.08;;;5.70;99.90;;;;;;4861802;29;20037;-66
2022/12/04 00:46:13;;;;;;;27.30;16.98;;;5.70;99.90;;;;;;4861741;29;20045;-68
2022/12/04 00:48:40;;;;;;;27.67;17.77;;;5.70;99.90;;;;;;4861336;29;20566;-67
2022/12/04 00:51:06;;;;;;;26.00;17.75;;;5.70;99.90;;;;;;4861620;29;20045;-66
2022/12/04 00:53:33;;;;;;;26.25;17.27;;;5.70;99.90;;;;;;4860777;29;20038;-68
2022/12/04 00:56:00;;;;;;;27.80;17.63;;;5.60;99.90;;;;;;4861696;29;20137;-65
2022/12/04 00:58:26;;;;;;;26.60;16.85;;;5.70;99.90;;;;;;4861819;29;20093;-68
2022/12/04 01:00:53;;;;;;;26.55;16.83;;;5.70;99.90;;;;;;4861522;29;20049;-68
2022/12/04 01:03:20;;;;;;;26.65;17.85;;;5.70;99.90;;;;;;4861747;29;20037;-68
2022/12/04 01:05:47;;;;;;;25.75;17.38;;;5.70;99.90;;;;;;4861586;29;20116;-67
2022/12/04 01:08:13;;;;;;;28.45;18.05;;;5.70;99.90;;;;;;4860562;29;20394;-68
2022/12/04 01:10:40;;;;;;;30.40;18.48;;;5.70;99.90;;;;;;4861204;29;20049;-66
2022/12/04 01:13:07;;;;;;;29.17;17.63;;;5.70;99.90;;;;;;4861505;29;20053;-68
2022/12/04 01:15:34;;;;;;;25.50;17.55;;;5.70;99.90;;;;;;4861368;29;20049;-66
2022/12/04 01:18:00;;;;;;;27.38;18.23;;;5.70;99.90;;;;;;4861708;29;20052;-66
2022/12/04 01:20:27;;;;;;;26.25;17.95;;;5.70;99.90;;;;;;4861604;29;20068;-68
2022/12/04 01:22:54;;;;;;;26.70;17.30;;;5.60;99.90;;;;;;4845139;29;20053;-67
2022/12/04 01:25:21;;;;;;;27.98;17.13;;;5.70;99.90;;;;;;4861499;29;20482;-66
2022/12/04 01:27:48;;;;;;;27.60;18.20;;;5.70;99.90;;;;;;4861190;29;20105;-68
2022/12/04 01:30:14;;;;;;;29.98;17.73;;;5.60;99.90;;;;;;4861076;29;20065;-67
2022/12/04 01:32:41;;;;;;;29.35;17.50;;;5.70;99.90;;;;;;4861317;29;20051;-67
2022/12/04 01:35:08;;;;;;;29.50;18.45;;;5.70;99.90;;;;;;4860750;29;20046;-68
2022/12/04 01:37:34;;;;;;;26.00;17.90;;;5.70;99.90;;;;;;4861485;29;20110;-70
2022/12/04 01:40:01;;;;;;;27.60;17.63;;;5.70;99.90;;;;;;4860983;29;20046;-68
2022/12/04 01:42:28;;;;;;;28.95;18.13;;;5.70;99.90;;;;;;4861202;29;20077;-66
2022/12/04 01:44:55;;;;;;;27.60;18.58;;;5.70;99.90;;;;;;4861017;29;20128;-68
2022/12/04 01:47:22;;;;;;;25.15;17.13;;;5.70;99.90;;;;;;4860910;29;20042;-67
2022/12/04 01:49:48;;;;;;;29.08;18.38;;;5.70;99.90;;;;;;4861368;29;20046;-68
2022/12/04 01:52:15;;;;;;;26.98;18.70;;;5.70;99.90;;;;;;4862453;29;20080;-68
2022/12/04 01:54:42;;;;;;;30.67;18.55;;;5.70;99.90;;;;;;4864936;29;20113;-69
2022/12/04 01:57:09;;;;;;;28.08;18.08;;;5.60;99.90;;;;;;4863584;29;20053;-67
2022/12/04 01:59:35;;;;;;;27.63;18.05;;;5.60;99.90;;;;;;4864337;29;20136;-69
2022/12/04 02:02:02;;;;;;;28.30;17.92;;;5.60;99.90;;;;;;4862684;29;20086;-67
2022/12/04 02:04:29;;;;;;;30.88;19.13;;;5.60;99.90;;;;;;4864899;29;20466;-70
2022/12/04 02:06:56;;;;;;;30.33;18.27;;;5.70;99.90;;;;;;4863043;29;20102;-68
2022/12/04 02:09:22;;;;;;;32.40;20.02;;;5.60;99.90;;;;;;4864598;29;20037;-68
2022/12/04 02:11:52;;;;;;;29.38;18.60;;;5.60;99.90;;;;;;4865141;29;20058;-67
2022/12/04 02:14:19;;;;;;;29.25;19.33;;;5.60;99.90;;;;;;4864710;29;20469;-67
2022/12/04 02:16:46;;;;;;;30.45;19.33;;;5.60;99.90;;;;;;4864422;29;20038;-69
2022/12/04 02:19:13;;;;;;;28.90;19.20;;;5.60;99.90;;;;;;4863189;29;20161;-69
2022/12/04 02:21:39;;;;;;;30.40;18.58;;;5.60;99.90;;;;;;4863207;29;20045;-68
2022/12/04 02:24:06;;;;;;;29.65;18.73;;;5.60;99.90;;;;;;4864237;29;20078;-67
2022/12/04 02:26:33;;;;;;;28.48;17.92;;;5.60;99.90;;;;;;4863980;29;20116;-69
2022/12/04 02:28:59;;;;;;;32.22;20.30;;;5.60;99.90;;;;;;4862967;29;20038;-69
2022/12/04 02:31:26;;;;;;;29.25;19.05;;;5.70;99.90;;;;;;4863763;29;20105;-70
2022/12/04 02:33:53;;;;;;;30.30;20.42;;;5.70;99.90;;;;;;4863267;29;20065;-69
2022/12/04 02:36:20;;;;;;;31.52;19.08;;;5.60;99.90;;;;;;4863796;29;20041;-69
2022/12/04 02:38:47;;;;;;;28.08;18.48;;;5.60;99.90;;;;;;4863854;29;20486;-69
2022/12/04 02:41:13;;;;;;;27.23;18.50;;;5.60;99.90;;;;;;4864066;29;20462;-69
2022/12/04 02:43:40;;;;;;;28.50;19.27;;;5.60;99.90;;;;;;4862824;29;20049;-67
2022/12/04 02:46:07;;;;;;;32.63;19.75;;;5.60;99.90;;;;;;4863928;29;20042;-67
2022/12/04 02:48:34;;;;;;;26.92;18.48;;;5.50;99.90;;;;;;4863962;29;20435;-65
2022/12/04 02:51:01;;;;;;;28.50;19.35;;;5.50;99.90;;;;;;4863873;29;20069;-68
2022/12/04 02:53:27;;;;;;;32.80;18.38;;;5.50;99.90;;;;;;4863922;29;20057;-65
2022/12/04 02:55:54;;;;;;;29.27;19.13;;;5.50;99.90;;;;;;4863467;29;20613;-67
2022/12/04 02:58:21;;;;;;;29.35;19.10;;;5.50;99.90;;;;;;4863734;29;20121;-66
2022/12/04 03:00:47;;;;;;;32.65;19.52;;;5.50;99.90;;;;;;4862554;29;20058;-68
2022/12/04 03:03:14;;;;;;;30.20;19.60;;;5.60;99.90;;;;;;4863079;29;20110;-67
2022/12/04 03:05:41;;;;;;;31.92;20.17;;;5.60;99.90;;;;;;4863280;29;20046;-66
2022/12/04 03:08:08;;;;;;;31.17;20.02;;;5.60;99.90;;;;;;4863755;29;20060;-67
2022/12/04 03:10:35;;;;;;;28.95;19.63;;;5.60;99.90;;;;;;4863318;29;20041;-66
2022/12/04 03:13:01;;;;;;;32.67;20.13;;;5.60;99.90;;;;;;4863315;29;20049;-67
2022/12/04 03:15:28;;;;;;;28.58;19.60;;;5.50;99.90;;;;;;4863484;29;20116;-67
2022/12/04 03:17:55;;;;;;;29.17;19.80;;;5.50;99.90;;;;;;4863142;29;20057;-66
2022/12/04 03:20:21;;;;;;;33.90;21.13;;;5.50;99.90;;;;;;4863389;29;20561;-67
2022/12/04 03:22:49;;;;;;;30.02;20.33;;;5.50;99.90;;;;;;4862211;29;20098;-68
2022/12/04 03:25:15;;;;;;;28.95;20.33;;;5.50;99.90;;;;;;4863116;29;20041;-68
2022/12/04 03:27:42;;;;;;;31.55;20.25;;;5.50;99.90;;;;;;4863459;29;20097;-66
2022/12/04 03:30:09;;;;;;;34.33;21.13;;;5.40;99.90;;;;;;4863110;29;20041;-67
2022/12/04 03:32:36;;;;;;;32.25;20.88;;;5.40;99.90;;;;;;4863044;29;20069;-69
2022/12/04 03:35:03;;;;;;;30.83;21.25;;;5.40;99.90;;;;;;4862830;29;20050;-67
2022/12/04 03:37:30;;;;;;;31.95;20.48;;;5.50;99.90;;;;;;4862901;29;20050;-68
2022/12/04 03:39:56;;;;;;;32.58;20.77;;;5.40;99.90;;;;;;4862992;29;20052;-69
2022/12/04 03:42:23;;;;;;;33.67;22.40;;;5.40;99.90;;;;;;4862488;29;20049;-65
2022/12/04 03:44:50;;;;;;;36.17;21.13;;;5.40;99.90;;;;;;4862962;29;20101;-69
2022/12/04 03:47:17;;;;;;;32.60;22.27;;;5.30;99.90;;;;;;4861729;29;20088;-67
2022/12/04 03:49:44;;;;;;;33.45;22.33;;;5.30;99.90;;;;;;4862837;29;20080;-66
2022/12/04 03:52:11;;;;;;;34.90;21.60;;;5.30;99.90;;;;;;4862657;29;20054;-68
2022/12/04 03:54:37;;;;;;;33.53;21.40;;;5.30;99.90;;;;;;4862413;29;20109;-68
2022/12/04 03:57:04;;;;;;;36.38;22.83;;;5.40;99.90;;;;;;4861519;29;20045;-66
2022/12/04 03:59:31;;;;;;;32.88;22.63;;;5.40;99.90;;;;;;4862409;29;20049;-68
2022/12/04 04:01:57;;;;;;;34.75;22.45;;;5.40;99.90;;;;;;4862209;29;20053;-68
2022/12/04 04:04:24;;;;;;;36.22;22.08;;;5.40;99.90;;;;;;4862651;29;20049;-69
2022/12/04 04:06:51;;;;;;;37.45;22.70;;;5.30;99.90;;;;;;4862664;29;20509;-68
2022/12/04 04:09:21;;;;;;;40.00;24.70;;;5.30;99.90;;;;;;4862408;29;20109;-66
2022/12/04 04:11:49;;;;;;;32.63;22.65;;;5.30;99.90;;;;;;4860901;29;20183;-66
2022/12/04 04:25:23;;;;;;;36.90;24.38;;;5.30;99.90;;;;;;4862294;29;20081;-66
2022/12/04 04:27:49;;;;;;;35.00;24.10;;;5.30;99.90;;;;;;4862207;29;20442;-66
2022/12/04 04:30:16;;;;;;;39.75;25.17;;;5.30;99.90;;;;;;4861742;29;20113;-68
2022/12/04 04:32:43;;;;;;;38.00;24.02;;;5.30;99.90;;;;;;4862001;29;20049;-65
2022/12/04 04:35:10;;;;;;;38.30;24.42;;;5.30;99.90;;;;;;4861587;29;20049;-71
2022/12/04 04:37:36;;;;;;;39.20;23.85;;;5.30;99.90;;;;;;4861904;29;20076;-69
2022/12/04 04:40:04;;;;;;;38.25;24.73;;;5.30;99.90;;;;;;4845608;29;20405;-69
2022/12/04 04:42:31;;;;;;;37.38;24.52;;;5.30;99.90;;;;;;4861964;29;20052;-66
2022/12/04 04:44:58;;;;;;;39.97;25.48;;;5.30;99.90;;;;;;4861992;29;20049;-67
2022/12/04 04:47:24;;;;;;;40.45;25.27;;;5.30;99.90;;;;;;4861796;29;20037;-67
2022/12/04 04:49:51;;;;;;;36.67;24.63;;;5.30;99.90;;;;;;4860508;29;20054;-67
2022/12/04 04:52:18;;;;;;;39.67;25.63;;;5.30;99.90;;;;;;4861849;29;20049;-67
2022/12/04 04:54:45;;;;;;;43.15;27.40;;;5.30;99.90;;;;;;4861654;29;20076;-68
2022/12/04 04:57:12;;;;;;;41.17;25.20;;;5.30;99.90;;;;;;4861700;29;20053;-66
2022/12/04 04:59:39;;;;;;;38.03;24.90;;;5.30;99.90;;;;;;4861920;29;20086;-65
2022/12/04 05:02:05;;;;;;;41.25;25.48;;;5.30;99.90;;;;;;4861469;29;20101;-69
2022/12/04 05:04:32;;;;;;;40.72;25.58;;;5.30;99.90;;;;;;4861557;29;20049;-68
2022/12/04 05:06:59;;;;;;;37.85;24.33;;;5.30;99.90;;;;;;4861591;29;20486;-67
2022/12/04 05:09:26;;;;;;;40.97;26.08;;;5.30;99.90;;;;;;4861275;29;20049;-67
2022/12/04 05:11:52;;;;;;;45.00;26.27;;;5.30;99.90;;;;;;4861450;29;20465;-67
2022/12/04 05:14:19;;;;;;;41.35;25.55;;;5.30;99.90;;;;;;4861461;29;20049;-68
2022/12/04 05:16:46;;;;;;;41.40;25.25;;;5.30;99.90;;;;;;4861543;29;20049;-69
2022/12/04 05:21:58;;;;;;;41.78;25.98;;;5.30;99.90;;;;;;4861656;29;20550;-67
2022/12/04 05:24:24;;;;;;;36.88;25.35;;;5.30;99.90;;;;;;4861363;29;20076;-66
2022/12/04 05:26:51;;;;;;;40.03;25.85;;;5.30;99.90;;;;;;4862700;29;20084;-67
2022/12/04 05:29:18;;;;;;;40.42;26.08;;;5.30;99.90;;;;;;4867445;29;20626;-69
2022/12/04 05:31:44;;;;;;;41.03;26.95;;;5.30;99.90;;;;;;4867365;29;20470;-68
2022/12/04 05:34:11;;;;;;;41.95;26.17;;;5.30;99.90;;;;;;4865950;29;20053;-70
2022/12/04 05:36:38;;;;;;;37.85;25.63;;;5.30;99.90;;;;;;4866825;29;20482;-67
2022/12/04 05:39:05;;;;;;;41.60;26.75;;;5.30;99.90;;;;;;4867658;29;20046;-69
2022/12/04 05:41:31;;;;;;;41.38;26.52;;;5.30;99.90;;;;;;4867089;29;20069;-67
2022/12/04 05:43:58;;;;;;;40.85;25.40;;;5.30;99.90;;;;;;4865930;29;20050;-67
2022/12/04 05:46:25;;;;;;;40.85;25.48;;;5.30;99.90;;;;;;4867338;29;20173;-67
2022/12/04 05:48:52;;;;;;;42.88;26.02;;;5.30;99.90;;;;;;4867030;29;20105;-68
2022/12/04 05:51:18;;;;;;;39.38;26.17;;;5.30;99.90;;;;;;4866912;29;20052;-69
2022/12/04 05:53:45;;;;;;;40.85;25.80;;;5.40;99.90;;;;;;4867227;29;20128;-69
2022/12/04 05:56:12;;;;;;;41.47;26.05;;;5.40;99.90;;;;;;4867336;29;20084;-67
2022/12/04 05:58:39;;;;;;;40.67;26.23;;;5.40;99.90;;;;;;4851027;29;20448;-69
2022/12/04 06:01:05;;;;;;;42.08;26.83;;;5.50;99.90;;;;;;4867207;29;20121;-69
2022/12/04 06:03:32;;;;;;;39.85;26.33;;;5.60;99.90;;;;;;4867250;29;20045;-68
2022/12/04 06:05:59;;;;;;;41.10;27.13;;;5.60;99.90;;;;;;4866936;29;20070;-66
2022/12/04 06:08:26;;;;;;;40.67;26.88;;;5.60;99.90;;;;;;4867099;29;20046;-67
2022/12/04 06:10:52;;;;;;;40.92;25.60;;;5.60;99.90;;;;;;4867118;29;20065;-66
2022/12/04 06:13:19;;;;;;;41.83;26.60;;;5.70;99.90;;;;;;4865993;29;20049;-68
2022/12/04 06:15:46;;;;;;;38.60;27.02;;;5.60;99.90;;;;;;4866985;29;20057;-67
2022/12/04 06:18:12;;;;;;;40.95;26.58;;;5.60;99.90;;;;;;4865984;29;20083;-69
2022/12/04 06:20:39;;;;;;;41.55;27.98;;;5.60;99.90;;;;;;4867399;29;20042;-67
2022/12/04 06:23:06;;;;;;;40.60;26.75;;;5.60;99.90;;;;;;4867151;29;20057;-69
2022/12/04 06:25:33;;;;;;;39.15;26.60;;;5.60;99.90;;;;;;4867302;29;20132;-67
2022/12/04 06:27:59;;;;;;;37.55;27.10;;;5.60;99.90;;;;;;4866763;29;20045;-67
2022/12/04 06:30:26;;;;;;;39.50;26.10;;;5.60;99.90;;;;;;4867175;29;20065;-67
2022/12/04 06:32:53;;;;;;;41.33;25.30;;;5.60;99.90;;;;;;4867137;29;20050;-69
2022/12/04 06:35:21;;;;;;;37.20;25.25;;;5.60;99.90;;;;;;4866992;29;20057;-68
2022/12/04 06:37:47;;;;;;;37.65;25.77;;;5.60;99.90;;;;;;4866814;29;20051;-67
2022/12/04 06:40:14;;;;;;;41.30;27.67;;;5.70;99.90;;;;;;4862702;29;20058;-67
2022/12/04 06:42:41;;;;;;;39.38;26.20;;;5.70;99.90;;;;;;4864045;29;20129;-67
2022/12/04 06:45:08;;;;;;;40.83;26.63;;;5.70;99.90;;;;;;4863621;29;20045;-68
2022/12/04 06:47:35;;;;;;;37.45;24.95;;;5.70;99.90;;;;;;4863970;29;20477;-67
2022/12/04 06:50:02;;;;;;;39.63;25.35;;;5.70;99.90;;;;;;4864086;29;20045;-68
2022/12/04 06:52:29;;;;;;;36.55;25.02;;;5.70;99.90;;;;;;4863925;29;20074;-70
2022/12/04 06:54:55;;;;;;;39.45;26.17;;;5.70;99.90;;;;;;4863903;29;20056;-67
2022/12/04 06:57:22;;;;;;;39.30;24.70;;;5.70;99.90;;;;;;4862508;29;20046;-67
2022/12/04 06:59:49;;;;;;;34.00;24.15;;;5.70;99.90;;;;;;4863895;29;20065;-68
2022/12/04 07:02:15;;;;;;;40.03;24.80;;;5.70;99.90;;;;;;4863744;29;20073;-68
2022/12/04 07:04:42;;;;;;;38.72;24.90;;;5.60;99.90;;;;;;4863235;29;20042;-68
2022/12/04 07:07:09;;;;;;;33.47;23.77;;;5.70;99.90;;;;;;4863197;29;20057;-68
2022/12/04 07:09:36;;;;;;;35.35;24.58;;;5.60;99.90;;;;;;4863717;29;20537;-69
2022/12/04 07:12:03;;;;;;;36.47;23.50;;;5.60;99.90;;;;;;4863791;29;20056;-66
2022/12/04 07:14:29;;;;;;;36.67;24.30;;;5.70;99.90;;;;;;4863329;29;20049;-67
2022/12/04 07:16:57;;;;;;;34.60;23.60;;;5.60;99.90;;;;;;4863442;29;20049;-69
2022/12/04 07:19:24;;;;;;;37.42;23.42;;;5.60;99.90;;;;;;4862953;29;20053;-68
2022/12/04 07:21:50;;;;;;;35.20;23.33;;;5.60;99.90;;;;;;4862879;29;20053;-67
2022/12/04 07:24:17;;;;;;;32.88;22.48;;;5.60;99.90;;;;;;4863129;29;20056;-68
2022/12/04 07:26:44;;;;;;;29.98;22.38;;;5.60;99.90;;;;;;4863127;29;20042;-67
2022/12/04 07:29:11;;;;;;;34.47;22.60;;;5.60;99.90;;;;;;4863081;29;20133;-67
2022/12/04 07:31:37;;;;;;;34.30;22.00;;;5.60;99.90;;;;;;4862974;29;20409;-67
2022/12/04 07:34:04;;;;;;;32.60;22.25;;;5.60;99.90;;;;;;4863313;29;20501;-70
2022/12/04 07:36:31;;;;;;;32.63;21.42;;;5.60;99.90;;;;;;4863028;29;20355;-64
2022/12/04 07:38:58;;;;;;;34.63;22.80;;;5.60;99.90;;;;;;4862985;29;20455;-68
2022/12/04 07:41:24;;;;;;;33.75;22.50;;;5.70;99.90;;;;;;4863318;29;20050;-68
2022/12/04 07:43:51;;;;;;;33.38;21.30;;;5.70;99.90;;;;;;4862676;29;20109;-66
2022/12/04 07:46:18;;;;;;;31.35;21.02;;;5.70;99.90;;;;;;4862735;29;20041;-68
2022/12/04 07:48:45;;;;;;;34.60;21.65;;;5.70;99.90;;;;;;4863142;29;20094;-66
2022/12/04 07:51:11;;;;;;;32.65;20.65;;;5.60;99.90;;;;;;4862614;29;20049;-68
2022/12/04 07:53:38;;;;;;;34.88;21.92;;;5.60;99.90;;;;;;4863005;29;20057;-67
2022/12/04 07:56:05;;;;;;;31.08;20.58;;;5.60;99.90;;;;;;4862862;29;20049;-69
2022/12/04 07:58:32;;;;;;;32.25;20.88;;;5.60;99.90;;;;;;4861618;29;20481;-64
2022/12/04 08:00:58;;;;;;;31.00;20.27;;;5.60;99.90;;;;;;4861401;29;20105;-68
2022/12/04 08:03:25;;;;;;;30.92;20.27;;;5.60;99.90;;;;;;4862270;29;20477;-66
2022/12/04 08:05:52;;;;;;;29.15;19.67;;;5.70;99.90;;;;;;4862722;29;20042;-67
2022/12/04 08:08:19;;;;;;;33.42;20.08;;;5.70;99.90;;;;;;4862479;29;20041;-66
2022/12/04 08:10:46;;;;;;;29.92;20.92;;;5.70;99.90;;;;;;4862765;29;20045;-68
2022/12/04 08:13:12;;;;;;;28.25;20.58;;;5.70;99.90;;;;;;4862607;29;20046;-66
2022/12/04 08:15:39;;;;;;;28.90;19.38;;;5.70;99.90;;;;;;4862065;29;20041;-68
2022/12/04 08:18:06;;;;;;;29.65;20.58;;;5.70;99.90;;;;;;4862579;29;20053;-68
2022/12/04 08:20:33;;;;;;;29.20;19.35;;;5.70;99.90;;;;;;4860753;29;20086;-66
2022/12/04 08:22:59;;;;;;;27.05;19.33;;;5.60;99.90;;;;;;4862277;29;20053;-66
2022/12/04 08:25:27;;;;;;;29.38;19.38;;;5.70;99.90;;;;;;4861903;29;20048;-67
2022/12/04 08:27:54;;;;;;;28.20;18.98;;;5.70;99.90;;;;;;4862437;29;20544;-67
2022/12/04 08:30:20;;;;;;;27.73;19.33;;;5.70;99.90;;;;;;4862179;29;20097;-69
2022/12/04 08:32:47;;;;;;;29.83;18.63;;;5.70;99.90;;;;;;4862326;29;20482;-65
2022/12/04 08:35:14;;;;;;;26.35;18.38;;;5.70;99.90;;;;;;4861888;29;20057;-70
2022/12/04 08:37:41;;;;;;;25.38;17.50;;;5.70;99.90;;;;;;4862178;29;20041;-69
2022/12/04 08:40:07;;;;;;;26.33;17.25;;;5.70;99.90;;;;;;4862053;29;20041;-68
2022/12/04 08:42:34;;;;;;;24.42;15.80;;;5.70;99.90;;;;;;4862252;29;20490;-68
2022/12/04 08:45:01;;;;;;;24.38;16.77;;;5.70;99.90;;;;;;4862133;29;20095;-68
2022/12/04 08:47:28;;;;;;;25.05;16.42;;;5.70;99.90;;;;;;4862058;29;20342;-67
2022/12/04 08:49:55;;;;;;;25.52;15.80;;;5.70;99.90;;;;;;4861983;29;20077;-68
2022/12/04 08:52:22;;;;;;;23.48;16.38;;;5.70;99.90;;;;;;4861702;29;20041;-69
2022/12/04 08:54:48;;;;;;;23.48;15.70;;;5.70;99.90;;;;;;4861637;29;20109;-67
2022/12/04 08:57:15;;;;;;;24.88;15.95;;;5.70;99.90;;;;;;4860582;29;20062;-68
2022/12/04 08:59:42;;;;;;;23.40;16.13;;;5.80;99.90;;;;;;4861982;29;20064;-68
2022/12/04 09:02:09;;;;;;;22.45;15.48;;;5.80;99.90;;;;;;4860664;29;20068;-67
2022/12/04 09:04:35;;;;;;;21.73;14.90;;;5.80;99.90;;;;;;4861409;29;20046;-67
2022/12/04 09:07:02;;;;;;;22.85;14.57;;;5.70;99.90;;;;;;4861610;29;20113;-67
2022/12/04 09:09:29;;;;;;;22.63;16.10;;;5.70;99.90;;;;;;4861803;29;20053;-66
2022/12/04 09:11:56;;;;;;;24.13;16.05;;;5.70;99.90;;;;;;4861308;29;20068;-68
2022/12/04 09:14:24;;;;;;;23.58;16.30;;;5.70;99.90;;;;;;4861370;29;20073;-67
2022/12/04 09:16:51;;;;;;;22.98;15.73;;;5.70;99.90;;;;;;4861308;29;20049;-66
2022/12/04 09:19:18;;;;;;;24.00;15.55;;;5.70;99.90;;;;;;4861434;29;20078;-67
2022/12/04 09:21:45;;;;;;;28.15;16.17;;;5.70;99.90;;;;;;4861192;29;20060;-67
2022/12/04 09:24:12;;;;;;;21.65;14.75;;;5.70;99.90;;;;;;4860408;29;20482;-68
2022/12/04 09:26:39;;;;;;;23.17;15.77;;;5.70;99.90;;;;;;4861239;29;20054;-67
2022/12/04 09:29:06;;;;;;;22.92;15.75;;;5.70;99.90;;;;;;4861329;29;20049;-67
2022/12/04 09:31:33;;;;;;;24.85;16.10;;;5.70;99.90;;;;;;4860063;29;20082;-69
2022/12/04 09:34:00;;;;;;;24.92;16.20;;;5.80;99.90;;;;;;4861088;29;20049;-67
2022/12/04 09:36:26;;;;;;;24.77;15.27;;;5.80;99.90;;;;;;4861004;29;20050;-68
2022/12/04 09:38:53;;;;;;;22.90;15.55;;;5.80;99.90;;;;;;4852823;29;20042;-67
2022/12/04 09:41:20;;;;;;;23.17;16.30;;;5.80;99.90;;;;;;4859681;29;20160;-68
2022/12/04 09:43:47;;;;;;;25.27;16.90;;;5.80;99.90;;;;;;4843354;29;20466;-68
2022/12/04 09:46:13;;;;;;;23.33;16.40;;;5.70;99.90;;;;;;4842130;29;20060;-67
2022/12/04 09:48:40;;;;;;;26.63;16.70;;;5.80;99.90;;;;;;4842037;29;20393;-67
2022/12/04 09:51:15;;;;;;;25.40;17.13;;;5.80;99.90;;;;;;4842495;29;20133;-67
2022/12/04 09:53:41;;;;;;;23.85;16.77;;;5.80;99.90;;;;;;4855720;29;20497;-67
2022/12/04 09:56:08;;;;;;;24.20;16.20;;;5.80;99.90;;;;;;4860545;29;20060;-68
2022/12/04 09:58:35;;;;;;;26.20;16.75;;;5.80;99.90;;;;;;4860368;29;20045;-66
2022/12/04 10:01:01;;;;;;;26.15;16.95;;;5.80;99.90;;;;;;4860566;29;20130;-67
2022/12/04 10:03:28;;;;;;;27.55;17.17;;;5.80;99.90;;;;;;4859093;29;20482;-68
2022/12/04 10:05:55;;;;;;;25.20;17.42;;;5.80;99.90;;;;;;4860950;29;20049;-68
2022/12/04 10:08:22;;;;;;;26.75;17.70;;;5.80;99.90;;;;;;4860763;29;20080;-68
2022/12/04 10:10:49;;;;;;;25.25;16.92;;;5.80;99.90;;;;;;4860694;29;20073;-68
2022/12/04 10:13:15;;;;;;;27.48;17.40;;;5.80;99.90;;;;;;4861518;29;20047;-69
2022/12/04 10:15:42;;;;;;;26.20;17.38;;;5.80;99.90;;;;;;4864183;29;20050;-67
2022/12/04 10:18:09;;;;;;;29.27;18.33;;;5.80;99.90;;;;;;4864101;29;20081;-69
2022/12/04 10:20:36;;;;;;;27.88;18.45;;;5.80;99.90;;;;;;4863970;29;20126;-68
2022/12/04 10:23:02;;;;;;;26.67;18.33;;;5.80;99.90;;;;;;4863773;29;20402;-67
2022/12/04 10:25:31;;;;;;;27.58;18.38;;;5.90;99.90;;;;;;4857627;29;20128;-68
2022/12/04 10:27:58;;;;;;;26.50;17.58;;;5.90;99.90;;;;;;4845130;29;20046;-69
2022/12/04 10:30:25;;;;;;;29.70;18.70;;;5.90;99.90;;;;;;4845197;29;20050;-68
2022/12/04 10:32:52;;;;;;;27.70;18.35;;;5.90;99.90;;;;;;4844969;29;20062;-69
2022/12/04 10:35:18;;;;;;;32.85;18.58;;;6.00;99.90;;;;;;4844907;29;20103;-68
2022/12/04 10:37:45;;;;;;;27.73;18.25;;;6.00;99.90;;;;;;4845060;29;20077;-69
2022/12/04 10:40:12;;;;;;;31.58;18.60;;;6.10;99.90;;;;;;4844987;29;20065;-69
2022/12/04 10:42:38;;;;;;;25.60;18.38;;;6.00;99.90;;;;;;4844912;29;20102;-69
2022/12/04 10:45:05;;;;;;;27.38;18.13;;;6.10;99.90;;;;;;4844074;29;20050;-68
2022/12/04 10:47:32;;;;;;;27.75;18.73;;;6.10;99.90;;;;;;4844835;29;20078;-68
2022/12/04 10:49:59;;;;;;;25.52;18.10;;;6.10;99.90;;;;;;4857168;29;20049;-68
2022/12/04 10:52:26;;;;;;;26.75;16.90;;;6.20;99.90;;;;;;4844832;29;20038;-68
2022/12/04 10:54:53;;;;;;;23.33;17.20;;;6.10;99.90;;;;;;4844686;29;20498;-67
2022/12/04 10:57:19;;;;;;;23.38;16.35;;;6.10;99.90;;;;;;4844607;29;20141;-67
2022/12/04 10:59:46;;;;;;;20.85;14.30;;;6.20;99.90;;;;;;4844478;29;20045;-70
2022/12/04 11:02:13;;;;;;;18.88;13.73;;;6.10;99.90;;;;;;4843397;29;20081;-68
2022/12/04 11:04:40;;;;;;;19.98;15.02;;;6.10;99.90;;;;;;4844369;29;20050;-69
2022/12/04 11:07:07;;;;;;;21.50;14.65;;;6.20;99.90;;;;;;4843383;29;20050;-67
2022/12/04 11:09:34;;;;;;;19.58;12.73;;;6.20;99.90;;;;;;4843148;29;20410;-68
2022/12/04 11:12:01;;;;;;;18.17;12.85;;;6.20;99.90;;;;;;4844804;29;20410;-68
2022/12/04 11:14:29;;;;;;;18.17;12.77;;;6.20;99.90;;;;;;4844485;29;20136;-67
2022/12/04 11:16:56;;;;;;;18.38;13.48;;;6.20;99.90;;;;;;4844467;29;20423;-68
2022/12/04 11:19:22;;;;;;;19.48;13.63;;;6.20;99.90;;;;;;4844377;29;20408;-67
2022/12/04 11:21:49;;;;;;;18.17;12.88;;;6.20;99.90;;;;;;4844502;29;20094;-68
2022/12/04 11:24:16;;;;;;;22.02;13.95;;;6.20;99.90;;;;;;4843965;29;20411;-67
2022/12/04 11:26:43;;;;;;;17.55;13.60;;;6.30;99.90;;;;;;4844175;29;20099;-67
2022/12/04 11:29:09;;;;;;;20.55;13.60;;;6.30;99.90;;;;;;4844258;29;20050;-67
2022/12/04 11:31:36;;;;;;;19.63;12.90;;;6.30;99.90;;;;;;4854042;29;20081;-68
2022/12/04 11:34:03;;;;;;;19.55;13.65;;;6.30;99.90;;;;;;4862303;29;20132;-68
2022/12/04 11:36:30;;;;;;;19.88;14.15;;;6.30;99.90;;;;;;4862264;29;20050;-68
2022/12/04 11:38:56;;;;;;;20.08;14.43;;;6.30;99.90;;;;;;4861921;29;20052;-68
2022/12/04 11:41:23;;;;;;;19.77;14.10;;;6.30;99.90;;;;;;4862593;29;20561;-67
2022/12/04 11:43:50;;;;;;;22.45;14.80;;;6.30;99.90;;;;;;4862678;29;20141;-69
2022/12/04 11:46:25;;;;;;;18.57;13.87;;;6.40;99.90;;;;;;4861035;29;20184;-67
2022/12/04 11:48:51;;;;;;;20.77;14.43;;;6.40;99.90;;;;;;4861174;29;20045;-67
2022/12/04 11:51:18;;;;;;;17.67;13.70;;;6.40;99.90;;;;;;4861128;29;20105;-66
2022/12/04 11:53:45;;;;;;;18.27;14.10;;;6.40;99.90;;;;;;4862176;29;20489;-67
2022/12/04 11:56:12;;;;;;;21.30;14.90;;;6.40;99.90;;;;;;4861868;29;20106;-67
2022/12/04 11:58:38;;;;;;;20.65;13.88;;;6.40;99.90;;;;;;4862052;29;20077;-65
2022/12/04 12:01:05;;;;;;;19.13;13.82;;;6.40;99.90;;;;;;4861987;29;20042;-68
2022/12/04 12:03:32;;;;;;;19.42;13.93;;;6.40;99.90;;;;;;4861708;29;20117;-69
2022/12/04 12:05:59;;;;;;;18.90;14.13;;;6.40;99.90;;;;;;4860522;29;20397;-66
2022/12/04 12:08:25;;;;;;;18.67;13.73;;;6.40;99.90;;;;;;4860804;29;20105;-66
2022/12/04 12:10:52;;;;;;;18.55;13.40;;;6.40;99.90;;;;;;4857553;29;20106;-68
2022/12/04 12:13:19;;;;;;;19.73;13.77;;;6.40;99.90;;;;;;4843266;29;20050;-65
2022/12/04 12:15:46;;;;;;;19.88;14.18;;;6.50;99.90;;;;;;4843535;29;20128;-68
2022/12/04 12:18:12;;;;;;;20.92;14.35;;;6.50;99.90;;;;;;4843909;29;20110;-67
2022/12/04 12:20:44;;;;;;;17.70;12.63;;;6.50;99.90;;;;;;4843808;29;20137;-67
2022/12/04 12:23:11;;;;;;;17.48;13.40;;;6.50;99.90;;;;;;4843910;29;20069;-67
2022/12/04 12:25:38;;;;;;;19.63;13.23;;;6.50;99.90;;;;;;4843458;29;20053;-67
2022/12/04 12:28:05;;;;;;;19.63;13.80;;;6.50;99.90;;;;;;4842650;29;20076;-69
2022/12/04 12:30:32;;;;;;;17.88;13.32;;;6.50;99.90;;;;;;4842981;29;20086;-68
2022/12/04 12:32:58;;;;;;;20.52;13.43;;;6.50;99.90;;;;;;4843194;29;20082;-67
2022/12/04 12:35:25;;;;;;;18.42;13.50;;;6.50;99.90;;;;;;4843487;29;20061;-67
2022/12/04 12:37:52;;;;;;;19.95;14.02;;;6.50;99.90;;;;;;4841678;29;20129;-67
2022/12/04 12:40:19;;;;;;;19.83;13.40;;;6.50;99.90;;;;;;4842367;29;20553;-68
2022/12/04 12:42:45;;;;;;;19.73;14.30;;;6.50;99.90;;;;;;4841343;29;20137;-67
2022/12/04 12:45:12;;;;;;;20.38;14.73;;;6.50;99.90;;;;;;4842324;29;20484;-68
2022/12/04 12:47:39;;;;;;;19.33;13.75;;;6.50;99.90;;;;;;4842436;29;20069;-69